Time;durP1;ratioP1;P1;durP2;ratioP2;P2;SDS_P1;SDS_P2;PMS_P1;PMS_P2;Temp;Humidity;BMP_temperature;BMP_pressure;BME280_temperature;BME280_humidity;BME280_pressure;Samples;Min_cycle;Max_cycle;Signal;HPM_P1;HPM_P2
2021/03/04 00:00:10;;;;;;;;;;;;;;;26.84;23.19;101931.53;5141045;27;850;-34
2021/03/04 00:02:35;;;;;;;;;;;;;;;26.31;23.79;101925.00;5141111;27;763;-34
2021/03/04 00:05:00;;;;;;;;;;;;;;;26.80;23.33;101923.91;5140245;27;862;-34
2021/03/04 00:07:26;;;;;;;;;;;;;;;26.54;23.86;101914.69;5140961;27;1964;-34
2021/03/04 00:09:51;;;;;;;;;;;;;;;26.56;23.70;101903.75;5140766;27;1031;-34
2021/03/04 00:12:17;;;;;;;;;;;;;;;26.59;23.74;101912.38;5139955;27;842;-34
2021/03/04 00:14:42;;;;;;;;;;;;;;;27.06;22.84;101912.41;5140905;27;775;-41
2021/03/04 00:17:08;;;;;;;;;;;;;;;27.46;22.45;101905.63;5134034;27;1580;-35
2021/03/04 00:19:33;;;;;;;;;;;;;;;27.98;21.83;101903.09;5119322;28;834;-35
2021/03/04 00:21:59;;;;;;;;;;;;;;;27.50;22.28;101898.91;5120401;28;822;-42
2021/03/04 00:24:24;;;;;;;;;;;;;;;27.11;22.97;101893.88;5124195;27;921;-34
2021/03/04 00:26:49;;;;;;;;;;;;;;;26.61;23.69;101890.66;5140175;27;755;-42
2021/03/04 00:29:14;;;;;;;;;;;;;;;26.44;23.78;101886.91;5140914;27;1905;-33
2021/03/04 00:31:40;;;;;;;;;;;;;;;27.04;22.92;101888.25;5140430;27;901;-33
2021/03/04 00:34:05;;;;;;;;;;;;;;;27.44;22.51;101872.53;5140362;27;798;-35
2021/03/04 00:36:31;;;;;;;;;;;;;;;27.41;22.42;101875.50;5140469;27;854;-34
2021/03/04 00:38:56;;;;;;;;;;;;;;;27.71;21.89;101875.25;5139158;27;953;-34
2021/03/04 00:41:21;;;;;;;;;;;;;;;28.05;21.76;101869.00;5139791;27;1240;-33
2021/03/04 00:43:47;;;;;;;;;;;;;;;27.41;22.59;101856.59;5140024;27;862;-34
2021/03/04 00:46:12;;;;;;;;;;;;;;;26.71;23.60;101853.63;5140063;27;770;-34
2021/03/04 00:48:37;;;;;;;;;;;;;;;28.23;21.66;101855.38;5140030;27;1914;-34
2021/03/04 00:51:02;;;;;;;;;;;;;;;27.71;21.76;101850.94;5140231;27;847;-33
2021/03/04 00:53:28;;;;;;;;;;;;;;;27.60;22.09;101847.47;5139615;27;826;-34
2021/03/04 00:55:53;;;;;;;;;;;;;;;27.93;22.04;101845.94;5139762;27;972;-35
2021/03/04 00:58:18;;;;;;;;;;;;;;;27.61;22.17;101846.44;5139981;27;818;-35
2021/03/04 01:00:43;;;;;;;;;;;;;;;27.35;22.77;101832.94;5139857;27;778;-35
2021/03/04 01:03:09;;;;;;;;;;;;;;;27.36;22.50;101838.16;5139844;27;747;-40
2021/03/04 01:05:34;;;;;;;;;;;;;;;26.56;23.58;101826.31;5139893;27;772;-37
2021/03/04 01:08:00;;;;;;;;;;;;;;;26.46;24.07;101825.56;5139295;27;1959;-34
2021/03/04 01:10:27;;;;;;;;;;;;;;;27.19;22.95;101825.56;5139028;27;1008;-33
2021/03/04 01:12:52;;;;;;;;;;;;;;;27.24;22.61;101832.16;5139621;27;847;-33
2021/03/04 01:15:18;;;;;;;;;;;;;;;27.67;22.05;101823.34;5139673;27;739;-33
2021/03/04 01:17:43;;;;;;;;;;;;;;;27.85;21.86;101823.28;5127081;27;1600;-34
2021/03/04 01:20:09;;;;;;;;;;;;;;;27.27;22.75;101825.63;5119018;28;880;-34
2021/03/04 01:22:35;;;;;;;;;;;;;;;27.13;22.88;101821.63;5119146;28;792;-33
2021/03/04 01:25:00;;;;;;;;;;;;;;;27.63;22.20;101814.69;5129334;27;902;-33
2021/03/04 01:27:25;;;;;;;;;;;;;;;28.29;21.40;101820.56;5139294;27;1951;-34
2021/03/04 01:29:51;;;;;;;;;;;;;;;27.87;21.86;101815.00;5139064;27;846;-34
2021/03/04 01:32:16;;;;;;;;;;;;;;;27.31;22.49;101820.75;5139411;27;762;-33
2021/03/04 01:34:41;;;;;;;;;;;;;;;27.68;22.23;101807.94;5139259;27;819;-33
2021/03/04 01:37:06;;;;;;;;;;;;;;;27.55;22.28;101811.09;5139256;27;782;-34
2021/03/04 01:39:32;;;;;;;;;;;;;;;27.18;22.54;101813.91;5139207;27;957;-33
2021/03/04 01:41:57;;;;;;;;;;;;;;;27.47;22.74;101807.34;5138434;27;1214;-33
2021/03/04 01:44:22;;;;;;;;;;;;;;;27.61;22.32;101807.78;5139473;27;802;-33
2021/03/04 01:46:47;;;;;;;;;;;;;;;27.73;22.46;101800.22;5139139;27;826;-33
2021/03/04 01:49:13;;;;;;;;;;;;;;;27.28;22.92;101792.19;5136810;27;1917;-40
2021/03/04 01:51:38;;;;;;;;;;;;;;;27.07;23.07;101790.72;5137920;27;783;-33
2021/03/04 01:54:04;;;;;;;;;;;;;;;28.26;21.38;101783.03;5139008;27;996;-33
2021/03/04 01:56:29;;;;;;;;;;;;;;;28.01;21.53;101786.47;5138429;27;806;-33
2021/03/04 01:58:55;;;;;;;;;;;;;;;26.80;23.43;101778.13;5138859;27;755;-34
2021/03/04 02:01:20;;;;;;;;;;;;;;;26.68;23.43;101775.66;5136940;27;1023;-34
2021/03/04 02:03:45;;;;;;;;;;;;;;;26.58;23.74;101772.19;5138340;27;783;-33
2021/03/04 02:06:11;;;;;;;;;;;;;;;27.10;22.83;101771.47;5138498;27;843;-33
2021/03/04 02:08:41;;;;;;;;;;;;;;;27.21;22.81;101773.06;5137114;27;1960;-33
2021/03/04 02:11:09;;;;;;;;;;;;;;;28.01;21.85;101774.84;5138308;27;1001;-37
2021/03/04 02:13:37;;;;;;;;;;;;;;;27.35;22.61;101766.25;5137089;27;866;-33
2021/03/04 02:16:04;;;;;;;;;;;;;;;26.57;23.55;101773.22;5138055;27;834;-34
2021/03/04 02:18:31;;;;;;;;;;;;;;;26.57;23.79;101773.22;5118836;27;1679;-34
2021/03/04 02:20:56;;;;;;;;;;;;;;;27.55;22.50;101767.84;5116743;28;795;-34
2021/03/04 02:23:26;;;;;;;;;;;;;;;28.32;21.57;101763.41;5117677;28;855;-33
2021/03/04 02:26:10;;;;;;;;;;;;;;;27.65;22.20;101762.31;5133917;27;965;-34
2021/03/04 02:28:35;;;;;;;;;;;;;;;27.32;22.67;101766.56;5138052;27;1910;-34
2021/03/04 02:31:01;;;;;;;;;;;;;;;27.78;22.04;101759.22;5137050;27;775;-34
2021/03/04 02:33:26;;;;;;;;;;;;;;;27.20;22.97;101760.56;5136659;27;775;-40
2021/03/04 02:35:52;;;;;;;;;;;;;;;26.59;23.89;101755.84;5138215;27;783;-33
2021/03/04 02:38:17;;;;;;;;;;;;;;;27.69;22.53;101751.06;5138265;27;771;-35
2021/03/04 02:40:43;;;;;;;;;;;;;;;28.19;21.82;101751.22;5137922;27;945;-41
2021/03/04 02:43:11;;;;;;;;;;;;;;;27.23;22.86;101748.59;5136472;27;1158;-34
2021/03/04 02:45:37;;;;;;;;;;;;;;;26.41;24.31;101753.16;5137259;27;763;-34
2021/03/04 02:48:03;;;;;;;;;;;;;;;27.28;23.11;101743.56;5137685;27;1898;-34
2021/03/04 02:50:28;;;;;;;;;;;;;;;28.10;21.74;101736.81;5137777;27;747;-34
2021/03/04 02:52:53;;;;;;;;;;;;;;;26.77;22.61;101645.19;5138038;27;847;-34
2021/03/04 02:55:19;;;;;;;;;;;;;;;27.50;22.62;101733.22;5137293;27;1040;-33
2021/03/04 02:57:44;;;;;;;;;;;;;;;28.27;21.64;101736.84;5137762;27;537;-33
2021/03/04 03:00:12;;;;;;;;;;;;;;;28.02;22.23;101742.22;5137583;28;799;-40
2021/03/04 03:02:38;;;;;;;;;;;;;;;28.60;21.32;101742.31;5135500;27;837;-34
2021/03/04 03:05:04;;;;;;;;;;;;;;;28.68;21.24;101741.47;5137440;28;851;-33
2021/03/04 03:07:29;;;;;;;;;;;;;;;28.75;20.93;101738.94;5136640;28;1905;-33
2021/03/04 03:09:54;;;;;;;;;;;;;;;28.51;21.30;101742.50;5137299;28;945;-33
2021/03/04 03:12:19;;;;;;;;;;;;;;;27.72;22.05;101731.81;5137628;28;851;-42
2021/03/04 03:14:45;;;;;;;;;;;;;;;27.53;22.46;101734.75;5136907;28;836;-42
2021/03/04 03:17:10;;;;;;;;;;;;;;;27.55;22.67;101727.31;5128302;28;1605;-42
2021/03/04 03:19:35;;;;;;;;;;;;;;;26.74;23.58;101722.94;5116844;28;867;-33
2021/03/04 03:22:01;;;;;;;;;;;;;;;26.22;24.33;101724.47;5117212;28;822;-33
2021/03/04 03:24:26;;;;;;;;;;;;;;;27.80;22.43;101711.22;5121087;28;913;-33
2021/03/04 03:26:52;;;;;;;;;;;;;;;28.05;21.84;101709.44;5137706;28;739;-34
2021/03/04 03:29:18;;;;;;;;;;;;;;;26.97;23.27;101717.88;5137672;28;1897;-33
2021/03/04 03:31:44;;;;;;;;;;;;;;;26.64;23.91;101712.22;5136698;28;827;-33
2021/03/04 03:34:09;;;;;;;;;;;;;;;27.00;23.15;101708.59;5136675;28;745;-33
2021/03/04 03:36:35;;;;;;;;;;;;;;;27.58;22.39;101705.34;5136665;28;758;-33
2021/03/04 03:39:00;;;;;;;;;;;;;;;27.33;22.85;101703.41;5135521;28;957;-33
2021/03/04 03:41:26;;;;;;;;;;;;;;;27.22;23.17;101696.44;5136144;28;1070;-33
2021/03/04 03:43:51;;;;;;;;;;;;;;;27.51;22.44;101699.75;5137425;28;763;-33
2021/03/04 03:46:16;;;;;;;;;;;;;;;26.94;23.52;101702.00;5135893;28;783;-33
2021/03/04 03:48:41;;;;;;;;;;;;;;;26.58;23.75;101699.34;5137436;28;1910;-33
2021/03/04 03:51:07;;;;;;;;;;;;;;;26.92;23.57;101695.91;5135867;28;806;-33
2021/03/04 03:53:33;;;;;;;;;;;;;;;26.64;23.88;101685.25;5136121;28;744;-33
2021/03/04 03:55:58;;;;;;;;;;;;;;;27.56;22.42;101691.19;5136165;28;1005;-33
2021/03/04 03:58:24;;;;;;;;;;;;;;;27.06;22.97;101688.25;5137291;28;766;-34
2021/03/04 04:00:52;;;;;;;;;;;;;;;27.08;22.90;101683.50;5135740;28;795;-33
2021/03/04 04:03:18;;;;;;;;;;;;;;;26.59;23.97;101684.88;5135851;28;783;-33
2021/03/04 04:05:43;;;;;;;;;;;;;;;27.74;22.51;101674.88;5137101;28;745;-33
2021/03/04 04:08:08;;;;;;;;;;;;;;;28.33;21.73;101684.81;5136626;28;1998;-42
2021/03/04 04:10:34;;;;;;;;;;;;;;;27.19;22.83;101682.41;5136588;28;960;-34
2021/03/04 04:13:00;;;;;;;;;;;;;;;27.75;22.32;101687.38;5136583;27;897;-34
2021/03/04 04:15:25;;;;;;;;;;;;;;;28.27;21.64;101690.00;5139381;27;833;-34
2021/03/04 04:17:51;;;;;;;;;;;;;;;28.14;21.87;101682.38;5127774;27;1598;-33
2021/03/04 04:20:16;;;;;;;;;;;;;;;26.90;23.08;101687.09;5120050;28;1036;-33
2021/03/04 04:22:42;;;;;;;;;;;;;;;26.99;23.10;101677.22;5118766;28;822;-33
2021/03/04 04:25:08;;;;;;;;;;;;;;;27.84;21.90;101683.69;5128558;27;981;-34
2021/03/04 04:27:33;;;;;;;;;;;;;;;27.06;23.39;101675.56;5140496;27;1958;-40
2021/03/04 04:29:58;;;;;;;;;;;;;;;26.21;24.39;101676.94;5140622;27;818;-33
2021/03/04 04:32:23;;;;;;;;;;;;;;;26.71;23.78;101666.56;5140781;27;759;-33
2021/03/04 04:34:49;;;;;;;;;;;;;;;27.71;22.38;101659.81;5140434;27;795;-33
2021/03/04 04:37:14;;;;;;;;;;;;;;;27.53;22.55;101661.78;5140450;27;801;-34
2021/03/04 04:39:39;;;;;;;;;;;;;;;26.35;23.60;101660.22;5139641;27;937;-36
2021/03/04 04:42:05;;;;;;;;;;;;;;;23.68;19.03;101645.66;5140284;27;1093;-39
2021/03/04 04:44:30;;;;;;;;;;;;;;;21.69;20.98;101650.59;5140301;27;886;-37
2021/03/04 04:46:56;;;;;;;;;;;;;;;21.39;20.44;101641.38;5139788;27;783;-36
2021/03/04 04:49:21;;;;;;;;;;;;;;;20.70;21.09;101637.75;5140199;27;1909;-34
2021/03/04 04:51:47;;;;;;;;;;;;;;;20.49;21.21;101639.28;5140174;27;759;-36
2021/03/04 04:54:12;;;;;;;;;;;;;;;19.87;21.45;101630.47;5139350;27;1004;-34
2021/03/04 04:56:37;;;;;;;;;;;;;;;18.90;24.33;101629.22;5138822;27;1477;-35
2021/03/04 04:59:03;;;;;;;;;;;;;;;17.22;25.45;101631.91;5129383;27;771;-32
2021/03/04 05:01:28;;;;;;;;;;;;;;;18.58;23.80;101627.78;5118873;28;807;-43
2021/03/04 05:03:53;;;;;;;;;;;;;;;20.65;21.11;101632.78;5137010;27;778;-36
2021/03/04 05:06:19;;;;;;;;;;;;;;;20.89;20.75;101627.34;5139833;27;798;-37
2021/03/04 05:08:44;;;;;;;;;;;;;;;22.74;19.19;101632.22;5124559;27;1906;-43
2021/03/04 05:11:10;;;;;;;;;;;;;;;23.47;19.31;101635.81;5118878;28;989;-33
2021/03/04 05:13:35;;;;;;;;;;;;;;;23.92;18.79;101622.06;5119165;28;849;-38
2021/03/04 05:16:00;;;;;;;;;;;;;;;24.23;18.51;101624.66;5118713;28;878;-44
2021/03/04 05:18:26;;;;;;;;;;;;;;;24.26;18.44;101631.56;5118800;28;1589;-39
2021/03/04 05:20:51;;;;;;;;;;;;;;;24.57;17.95;101623.34;5122636;27;814;-33
2021/03/04 05:23:16;;;;;;;;;;;;;;;24.56;17.72;101619.81;5139273;27;861;-35
2021/03/04 05:25:41;;;;;;;;;;;;;;;24.74;17.68;101628.97;5123703;27;949;-34
2021/03/04 05:28:07;;;;;;;;;;;;;;;24.90;17.29;101626.56;5118580;28;1905;-34
2021/03/04 05:30:32;;;;;;;;;;;;;;;24.82;17.54;101624.56;5118272;28;1439;-33
2021/03/04 05:32:57;;;;;;;;;;;;;;;24.93;17.27;101628.97;5118969;28;814;-33
2021/03/04 05:35:23;;;;;;;;;;;;;;;24.96;17.16;101630.50;5118384;28;876;-33
2021/03/04 05:37:48;;;;;;;;;;;;;;;24.95;16.92;101634.19;5118425;28;798;-34
2021/03/04 05:40:14;;;;;;;;;;;;;;;24.48;17.42;101629.56;5118089;28;1009;-42
2021/03/04 05:42:40;;;;;;;;;;;;;;;23.88;18.11;101620.63;5118326;28;1282;-34
2021/03/04 05:45:05;;;;;;;;;;;;;;;23.64;18.38;101621.91;5116853;28;822;-43
2021/03/04 05:47:31;;;;;;;;;;;;;;;23.76;18.43;101626.16;5116860;28;751;-34
2021/03/04 05:50:00;;;;;;;;;;;;;;;24.15;17.96;101624.47;5117147;28;1909;-34
2021/03/04 05:52:25;;;;;;;;;;;;;;;23.82;18.09;101628.28;5118276;28;779;-43
2021/03/04 05:54:50;;;;;;;;;;;;;;;23.58;18.42;101624.13;5116899;28;1028;-33
2021/03/04 05:57:16;;;;;;;;;;;;;;;23.88;18.32;101617.97;5118343;28;843;-43
2021/03/04 05:59:41;;;;;;;;;;;;;;;24.22;18.14;101620.28;5116749;28;802;-33
2021/03/04 06:02:07;;;;;;;;;;;;;;;24.49;17.80;101615.97;5118019;28;795;-43
2021/03/04 06:04:32;;;;;;;;;;;;;;;24.63;17.93;101611.16;5118246;28;900;-33
2021/03/04 06:06:58;;;;;;;;;;;;;;;25.06;18.53;101615.16;5116697;28;914;-31
2021/03/04 06:09:23;;;;;;;;;;;;;;;25.19;19.52;101619.38;5121195;27;1973;-35
2021/03/04 06:11:48;;;;;;;;;;;;;;;25.38;19.65;101614.88;5138511;27;854;-33
2021/03/04 06:14:14;;;;;;;;;;;;;;;24.28;19.03;101610.78;5138096;27;755;-34
2021/03/04 06:16:39;;;;;;;;;;;;;;;23.56;19.91;101601.06;5135704;27;1600;-31
2021/03/04 06:19:04;;;;;;;;;;;;;;;22.98;21.39;101588.16;5117929;28;807;-32
2021/03/04 06:21:29;;;;;;;;;;;;;;;22.81;21.68;101594.13;5117405;28;811;-30
2021/03/04 06:23:55;;;;;;;;;;;;;;;22.68;22.04;101588.97;5117399;28;918;-33
2021/03/04 06:26:24;;;;;;;;;;;;;;;23.36;21.13;101587.56;5138301;27;751;-30
2021/03/04 06:28:49;;;;;;;;;;;;;;;23.60;21.12;101581.03;5137840;27;1902;-34
2021/03/04 06:31:18;;;;;;;;;;;;;;;23.67;21.01;101586.69;5138146;27;747;-33
2021/03/04 06:33:43;;;;;;;;;;;;;;;23.77;21.78;101594.75;5138263;27;842;-33
2021/03/04 06:36:15;;;;;;;;;;;;;;;24.95;21.35;101591.13;5137564;27;799;-36
2021/03/04 06:38:40;;;;;;;;;;;;;;;25.58;20.88;101591.34;5137740;27;775;-35
2021/03/04 06:41:18;;;;;;;;;;;;;;;25.87;20.68;101590.34;5137965;27;1209;-41
2021/03/04 06:43:43;;;;;;;;;;;;;;;25.73;21.21;101589.03;5137411;27;824;-56
2021/03/04 06:46:10;;;;;;;;;;;;;;;26.07;21.13;101586.63;5136856;27;728;-35
2021/03/04 06:48:35;;;;;;;;;;;;;;;25.52;22.05;101595.53;5137897;27;1959;-33
2021/03/04 06:51:01;;;;;;;;;;;;;;;26.04;21.38;101585.94;5137420;27;796;-47
2021/03/04 06:53:27;;;;;;;;;;;;;;;26.31;21.03;101583.28;5138054;27;786;-33
2021/03/04 06:55:53;;;;;;;;;;;;;;;26.52;20.85;101585.66;5138034;27;976;-52
2021/03/04 06:58:27;;;;;;;;;;;;;;;26.28;21.00;101584.44;5137081;27;833;-35
2021/03/04 07:01:12;;;;;;;;;;;;;;;26.35;21.54;101579.28;5137563;28;1436;-34
2021/03/04 07:03:38;;;;;;;;;;;;;;;25.94;22.00;101568.16;5137615;28;763;-33
2021/03/04 07:06:03;;;;;;;;;;;;;;;25.28;21.71;101567.31;5137608;28;788;-32
2021/03/04 07:08:29;;;;;;;;;;;;;;;24.15;22.80;101562.66;5137803;28;1902;-36
2021/03/04 07:10:54;;;;;;;;;;;;;;;25.16;21.74;101565.78;5136425;28;1028;-34
2021/03/04 07:13:19;;;;;;;;;;;;;;;24.25;22.12;101555.47;5136138;28;735;-49
2021/03/04 07:15:44;;;;;;;;;;;;;;;24.01;22.67;101547.81;5138147;28;747;-35
2021/03/04 07:18:10;;;;;;;;;;;;;;;23.82;23.09;101544.16;5120645;28;1616;-33
2021/03/04 07:20:36;;;;;;;;;;;;;;;24.47;21.93;101548.06;5116834;28;739;-33
2021/03/04 07:23:01;;;;;;;;;;;;;;;23.50;23.76;101546.09;5115213;28;834;-33
2021/03/04 07:25:26;;;;;;;;;;;;;;;23.67;23.47;101544.53;5128796;28;954;-34
2021/03/04 07:27:51;;;;;;;;;;;;;;;23.82;23.86;101539.59;5118784;28;1902;-32
2021/03/04 07:30:17;;;;;;;;;;;;;;;23.50;24.04;101543.41;5117181;28;806;-35
2021/03/04 07:32:43;;;;;;;;;;;;;;;23.71;24.39;101539.75;5116954;28;775;-35
2021/03/04 07:35:11;;;;;;;;;;;;;;;23.54;24.17;101535.94;5116646;28;758;-34
2021/03/04 07:37:43;;;;;;;;;;;;;;;23.63;24.57;101529.72;5115819;28;753;-33
2021/03/04 07:40:09;;;;;;;;;;;;;;;23.75;24.66;101527.75;5127044;28;965;-38
2021/03/04 07:42:35;;;;;;;;;;;;;;;24.08;24.05;101527.44;5137076;28;1263;-33
2021/03/04 07:45:13;;;;;;;;;;;;;;;24.66;23.14;101533.69;5137588;28;794;-42
2021/03/04 07:47:38;;;;;;;;;;;;;;;24.73;23.15;101522.34;5137264;27;1914;-34
2021/03/04 07:50:13;;;;;;;;;;;;;;;24.93;23.22;101515.06;5141161;27;822;-36
2021/03/04 07:52:38;;;;;;;;;;;;;;;25.28;22.29;101515.28;5141404;27;761;-36
2021/03/04 07:55:08;;;;;;;;;;;;;;;25.52;22.28;101508.47;5140045;27;968;-36
2021/03/04 07:57:41;;;;;;;;;;;;;;;25.24;22.14;101500.44;5140661;27;881;-36
2021/03/04 08:00:06;;;;;;;;;;;;;;;25.38;22.04;101499.06;5141160;27;754;-35
2021/03/04 08:02:32;;;;;;;;;;;;;;;25.82;22.21;101486.69;5141015;27;902;-33
2021/03/04 08:05:07;;;;;;;;;;;;;;;25.56;21.91;101485.59;5140537;27;842;-38
2021/03/04 08:07:32;;;;;;;;;;;;;;;25.16;22.27;101485.03;5140859;27;743;-34
2021/03/04 08:10:10;;;;;;;;;;;;;;;25.22;23.06;101479.06;5140306;27;1898;-32
2021/03/04 08:12:45;;;;;;;;;;;;;;;25.48;22.87;101470.22;5140572;27;771;-35
2021/03/04 08:15:11;;;;;;;;;;;;;;;25.88;22.56;101467.19;5140708;27;802;-35
2021/03/04 08:17:36;;;;;;;;;;;;;;;25.83;22.86;101464.97;5130574;27;1585;-34
2021/03/04 08:20:08;;;;;;;;;;;;;;;26.28;21.56;101454.13;5119649;28;1167;-31
2021/03/04 08:22:33;;;;;;;;;;;;;;;25.95;22.30;101446.69;5119964;28;755;-34
2021/03/04 08:25:02;;;;;;;;;;;;;;;25.75;22.82;101435.25;5127988;27;969;-49
2021/03/04 08:27:28;;;;;;;;;;;;;;;25.92;22.43;101438.94;5140189;27;841;-34
2021/03/04 08:29:53;;;;;;;;;;;;;;;25.97;22.73;101446.53;5140466;27;1897;-32
2021/03/04 08:32:18;;;;;;;;;;;;;;;26.34;22.18;101445.41;5130711;27;826;-34
2021/03/04 08:34:44;;;;;;;;;;;;;;;26.40;21.49;101434.00;5118875;28;811;-57
2021/03/04 08:37:21;;;;;;;;;;;;;;;25.92;22.43;101433.53;5119737;28;847;-36
2021/03/04 08:39:46;;;;;;;;;;;;;;;26.54;21.51;101437.09;5119899;28;965;-36
2021/03/04 08:42:11;;;;;;;;;;;;;;;25.92;22.78;101430.84;5119337;28;1326;-36
2021/03/04 08:44:37;;;;;;;;;;;;;;;25.92;22.01;101420.88;5119794;28;811;-35
2021/03/04 08:47:03;;;;;;;;;;;;;;;25.98;21.57;101408.63;5119773;28;766;-33
2021/03/04 08:49:28;;;;;;;;;;;;;;;26.42;21.48;101417.66;5119046;28;1934;-35
2021/03/04 08:51:54;;;;;;;;;;;;;;;26.96;20.66;101411.06;5119655;28;830;-35
2021/03/04 08:54:20;;;;;;;;;;;;;;;27.43;20.39;101416.03;5119534;28;1133;-34
2021/03/04 08:56:56;;;;;;;;;;;;;;;27.45;20.65;101416.69;5119793;27;1343;-32
2021/03/04 08:59:22;;;;;;;;;;;;;;;26.42;21.97;101406.88;5119464;28;792;-35
2021/03/04 09:01:47;;;;;;;;;;;;;;;26.78;21.65;101403.09;5119100;28;743;-45
2021/03/04 09:04:16;;;;;;;;;;;;;;;26.27;22.35;101404.75;5119254;28;747;-34
2021/03/04 09:06:41;;;;;;;;;;;;;;;26.22;22.94;101392.75;5119502;28;818;-32
2021/03/04 09:09:07;;;;;;;;;;;;;;;26.28;22.61;101389.41;5119046;28;1901;-34
2021/03/04 09:11:33;;;;;;;;;;;;;;;26.32;22.63;101388.09;5118675;28;802;-35
2021/03/04 09:14:02;;;;;;;;;;;;;;;26.15;22.70;101387.16;5119198;28;741;-36
2021/03/04 09:16:27;;;;;;;;;;;;;;;26.20;22.82;101379.44;5119024;28;1588;-37
2021/03/04 09:18:52;;;;;;;;;;;;;;;26.15;22.67;101374.53;5118758;27;845;-32
2021/03/04 09:21:18;;;;;;;;;;;;;;;26.05;22.96;101371.09;5119007;28;786;-33
2021/03/04 09:23:43;;;;;;;;;;;;;;;27.22;21.63;101368.75;5118661;28;840;-34
2021/03/04 09:26:08;;;;;;;;;;;;;;;26.85;22.22;101366.34;5117168;28;1021;-34
2021/03/04 09:28:35;;;;;;;;;;;;;;;26.32;22.79;101366.50;5118948;28;1897;-33
2021/03/04 09:31:27;;;;;;;;;;;;;;;26.33;22.81;101364.66;5118337;28;854;-34
2021/03/04 09:33:56;;;;;;;;;;;;;;;27.33;21.32;101365.72;5115471;28;1625;-32
2021/03/04 09:36:21;;;;;;;;;;;;;;;26.78;22.37;101355.38;5118407;28;779;-44
2021/03/04 09:38:50;;;;;;;;;;;;;;;26.57;22.58;101354.97;5118255;28;840;-33
2021/03/04 09:41:15;;;;;;;;;;;;;;;26.19;23.25;101345.38;5118220;28;1058;-33
2021/03/04 09:43:44;;;;;;;;;;;;;;;27.40;21.43;101346.97;5118245;28;846;-33
2021/03/04 09:46:09;;;;;;;;;;;;;;;27.07;22.38;101333.47;5118779;28;747;-33
2021/03/04 09:48:37;;;;;;;;;;;;;;;26.85;22.81;101330.41;5117878;28;1901;-33
2021/03/04 09:51:03;;;;;;;;;;;;;;;26.91;22.52;101321.63;5118647;28;827;-33
2021/03/04 09:53:29;;;;;;;;;;;;;;;26.85;22.85;101319.59;5118358;28;830;-33
2021/03/04 09:55:54;;;;;;;;;;;;;;;26.77;22.75;101315.91;5117814;28;962;-33
2021/03/04 09:58:20;;;;;;;;;;;;;;;26.22;21.36;101312.69;5117958;28;799;-35
2021/03/04 10:00:45;;;;;;;;;;;;;;;27.09;21.29;101315.25;5118090;28;735;-35
2021/03/04 10:03:11;;;;;;;;;;;;;;;27.04;21.79;101306.81;5117441;28;763;-52
2021/03/04 10:05:48;;;;;;;;;;;;;;;26.98;22.34;101305.59;5118371;28;782;-35
2021/03/04 10:08:14;;;;;;;;;;;;;;;26.87;22.43;101299.53;5117986;28;1897;-33
2021/03/04 10:10:39;;;;;;;;;;;;;;;27.17;21.50;101301.75;5117471;28;958;-33
2021/03/04 10:13:05;;;;;;;;;;;;;;;27.77;20.71;101298.78;5117008;28;759;-33
2021/03/04 10:15:32;;;;;;;;;;;;;;;27.65;21.32;101292.03;5117625;28;811;-35
2021/03/04 10:17:57;;;;;;;;;;;;;;;27.53;21.44;101291.56;5117531;28;1565;-35
2021/03/04 10:20:23;;;;;;;;;;;;;;;27.03;22.15;101284.38;5117839;28;822;-50
2021/03/04 10:22:49;;;;;;;;;;;;;;;27.13;22.07;101278.78;5117736;28;795;-58
2021/03/04 10:25:14;;;;;;;;;;;;;;;27.01;22.29;101272.84;5117309;28;1073;-42
2021/03/04 10:27:39;;;;;;;;;;;;;;;27.62;21.60;101269.75;5117694;28;753;-34
2021/03/04 10:30:08;;;;;;;;;;;;;;;27.48;21.57;101263.19;5117634;28;1975;-54
2021/03/04 10:32:33;;;;;;;;;;;;;;;27.42;21.64;101258.50;5116099;28;787;-34
2021/03/04 10:34:59;;;;;;;;;;;;;;;27.47;21.35;101249.88;5117205;28;831;-42
2021/03/04 10:37:24;;;;;;;;;;;;;;;27.58;21.23;101237.81;5117592;28;832;-38
2021/03/04 10:39:49;;;;;;;;;;;;;;;27.65;21.22;101232.56;5117010;28;954;-47
2021/03/04 10:42:15;;;;;;;;;;;;;;;27.38;21.82;101216.63;5108648;28;1313;-36
2021/03/04 10:44:40;;;;;;;;;;;;;;;26.86;22.13;101214.16;5117054;28;863;-32
2021/03/04 10:47:06;;;;;;;;;;;;;;;25.77;22.80;101209.59;5117563;28;1051;-37
2021/03/04 10:49:31;;;;;;;;;;;;;;;25.24;23.65;101205.09;5116766;28;1976;-37
2021/03/04 10:51:56;;;;;;;;;;;;;;;26.14;22.67;101211.03;5117125;28;783;-39
2021/03/04 10:54:22;;;;;;;;;;;;;;;26.44;22.50;101197.16;5117400;28;813;-35
2021/03/04 10:56:47;;;;;;;;;;;;;;;26.67;22.70;101198.31;5116681;28;962;-33
2021/03/04 10:59:12;;;;;;;;;;;;;;;26.43;23.17;101198.13;5117396;28;1126;-32
2021/03/04 11:01:38;;;;;;;;;;;;;;;26.58;22.85;101186.66;5117189;28;752;-32
2021/03/04 11:04:03;;;;;;;;;;;;;;;26.58;22.95;101176.72;5116811;28;809;-27
2021/03/04 11:06:28;;;;;;;;;;;;;;;26.68;22.85;101179.25;5117373;28;839;-41
2021/03/04 11:08:54;;;;;;;;;;;;;;;26.98;22.57;101163.34;5117149;28;1889;-41
2021/03/04 11:11:19;;;;;;;;;;;;;;;26.65;22.94;101158.00;5122971;28;1016;-39
2021/03/04 11:13:44;;;;;;;;;;;;;;;26.38;23.41;101155.47;5137653;28;731;-33
2021/03/04 11:16:10;;;;;;;;;;;;;;;26.29;23.48;101143.00;5137503;28;862;-31
2021/03/04 11:18:35;;;;;;;;;;;;;;;26.47;23.21;101137.47;5118342;28;1655;-32
2021/03/04 11:21:00;;;;;;;;;;;;;;;26.46;23.29;101132.22;5117073;28;831;-28
2021/03/04 11:23:25;;;;;;;;;;;;;;;26.22;23.78;101125.78;5118340;28;802;-29
2021/03/04 11:25:51;;;;;;;;;;;;;;;26.48;23.31;101119.41;5123284;27;965;-33
2021/03/04 11:28:16;;;;;;;;;;;;;;;27.03;22.86;101119.66;5141696;27;1905;-29
2021/03/04 11:30:41;;;;;;;;;;;;;;;26.94;22.67;101105.34;5141449;27;840;-29
2021/03/04 11:33:07;;;;;;;;;;;;;;;27.05;22.96;101106.00;5141380;27;755;-32
2021/03/04 11:35:32;;;;;;;;;;;;;;;27.31;22.69;101099.50;5139043;27;1133;-34
2021/03/04 11:37:58;;;;;;;;;;;;;;;27.16;22.94;101091.28;5120607;28;799;-36
2021/03/04 11:40:23;;;;;;;;;;;;;;;27.08;22.90;101086.72;5120515;28;779;-34
2021/03/04 11:42:49;;;;;;;;;;;;;;;27.10;23.07;101093.66;5120312;28;1137;-33
2021/03/04 11:45:14;;;;;;;;;;;;;;;27.12;23.24;101086.25;5121229;28;767;-32
2021/03/04 11:47:39;;;;;;;;;;;;;;;27.25;22.82;101085.66;5121599;27;1494;-31
2021/03/04 11:50:05;;;;;;;;;;;;;;;27.08;23.16;101084.88;5132893;27;1968;-30
2021/03/04 11:52:30;;;;;;;;;;;;;;;27.23;23.04;101070.63;5132007;27;1549;-32
2021/03/04 11:54:56;;;;;;;;;;;;;;;26.98;23.39;101062.63;5130885;27;811;-33
2021/03/04 11:57:22;;;;;;;;;;;;;;;26.81;23.75;101056.44;5120298;28;946;-36
2021/03/04 11:59:47;;;;;;;;;;;;;;;26.76;23.59;101055.09;5120256;28;834;-30
2021/03/04 12:02:12;;;;;;;;;;;;;;;26.87;23.61;101055.75;5120496;28;978;-37
2021/03/04 12:04:38;;;;;;;;;;;;;;;26.87;23.67;101047.66;5114846;27;1211;-41
2021/03/04 12:07:03;;;;;;;;;;;;;;;27.00;23.69;101045.25;5118421;27;1047;-37
2021/03/04 12:09:28;;;;;;;;;;;;;;;27.02;23.38;101045.94;5119259;28;1902;-35
2021/03/04 12:11:54;;;;;;;;;;;;;;;27.04;23.64;101039.53;5119412;28;946;-39
2021/03/04 12:14:19;;;;;;;;;;;;;;;27.21;23.71;101043.81;5120012;28;790;-38
2021/03/04 12:16:45;;;;;;;;;;;;;;;27.42;23.23;101031.56;5119956;28;1577;-35
2021/03/04 12:19:11;;;;;;;;;;;;;;;27.11;23.59;101021.59;5119398;28;762;-38
2021/03/04 12:21:36;;;;;;;;;;;;;;;27.00;23.59;101020.94;5119700;28;835;-43
2021/03/04 12:24:01;;;;;;;;;;;;;;;27.36;23.52;101016.88;5119870;28;765;-44
2021/03/04 12:26:28;;;;;;;;;;;;;;;27.16;23.45;101005.69;5125083;27;852;-43
2021/03/04 12:28:54;;;;;;;;;;;;;;;27.14;23.53;101007.75;5140317;27;1959;-45
2021/03/04 12:31:19;;;;;;;;;;;;;;;27.12;23.50;101002.53;5140172;27;755;-39
2021/03/04 12:33:44;;;;;;;;;;;;;;;27.37;23.32;101002.38;5139504;27;770;-43
2021/03/04 12:36:09;;;;;;;;;;;;;;;27.16;23.58;101004.88;5131674;27;1157;-40
2021/03/04 12:38:35;;;;;;;;;;;;;;;27.17;23.64;100999.28;5119608;28;1052;-35
2021/03/04 12:41:00;;;;;;;;;;;;;;;27.28;23.48;100991.81;5118511;28;1012;-43
2021/03/04 12:43:25;;;;;;;;;;;;;;;27.17;23.43;100984.94;5119104;28;1400;-42
2021/03/04 12:45:51;;;;;;;;;;;;;;;27.08;23.70;100979.59;5119498;28;810;-43